Time;durP1;ratioP1;P1;durP2;ratioP2;P2;SDS_P1;SDS_P2;PMS_P1;PMS_P2;Temp;Humidity;BMP_temperature;BMP_pressure;BME280_temperature;BME280_humidity;BME280_pressure;Samples;Min_cycle;Max_cycle;Signal;HPM_P1;HPM_P2
2023/10/24 00:02:45;;;;;;;32.10;23.00;;;;;;;6.11;91.22;99666.41;219096;1258;140117;-67
2023/10/24 00:07:50;;;;;;;41.00;24.00;;;;;;;6.11;91.07;99667.10;219460;1258;140775;-67
2023/10/24 00:12:57;;;;;;;38.90;26.50;;;;;;;6.06;90.33;99662.92;218606;1257;140997;-67
2023/10/24 00:18:01;;;;;;;37.90;24.70;;;;;;;6.01;90.89;99660.70;218954;1257;139903;-69
2023/10/24 00:23:06;;;;;;;32.80;23.20;;;;;;;5.97;90.41;99659.52;217407;1263;141811;-68
2023/10/24 00:28:10;;;;;;;36.30;24.20;;;;;;;5.88;90.47;99659.95;218262;1258;139846;-67
2023/10/24 00:33:15;;;;;;;32.90;25.10;;;;;;;5.85;90.52;99658.92;217412;1257;140495;-67
2023/10/24 00:38:20;;;;;;;36.40;24.40;;;;;;;5.83;90.88;99652.13;217707;1257;139942;-70
2023/10/24 00:43:24;;;;;;;36.30;24.50;;;;;;;5.82;90.92;99650.80;218020;1261;140646;-69
2023/10/24 00:48:30;;;;;;;37.20;23.00;;;;;;;5.72;90.80;99649.93;218394;1257;140323;-69
2023/10/24 00:53:35;;;;;;;41.80;22.90;;;;;;;5.66;90.76;99651.84;217768;1261;140963;-69
2023/10/24 00:58:40;;;;;;;32.40;22.20;;;;;;;5.58;90.62;99653.59;218616;1257;142208;-69
2023/10/24 01:03:48;;;;;;;38.60;27.80;;;;;;;5.56;91.41;99647.52;218059;1257;141700;-69
2023/10/24 01:08:53;;;;;;;36.90;25.50;;;;;;;5.56;91.23;99644.14;218757;1259;140279;-69
2023/10/24 01:14:01;;;;;;;42.00;27.10;;;;;;;5.52;90.89;99646.64;219062;1260;142555;-69
2023/10/24 01:19:06;;;;;;;35.80;24.10;;;;;;;5.48;90.81;99649.12;217769;1260;140450;-67
2023/10/24 01:24:13;;;;;;;52.80;31.10;;;;;;;5.41;90.96;99647.10;218842;1260;140015;-68
2023/10/24 01:29:18;;;;;;;35.70;22.40;;;;;;;5.43;91.85;99641.93;219899;1259;141033;-68
2023/10/24 01:34:22;;;;;;;40.00;24.20;;;;;;;5.38;91.12;99639.36;219935;1260;140291;-69
2023/10/24 01:39:26;;;;;;;36.80;25.10;;;;;;;5.35;91.38;99642.17;219875;1260;141098;-67
2023/10/24 01:44:29;;;;;;;34.50;22.90;;;;;;;5.36;91.39;99635.34;219898;1259;140786;-67
2023/10/24 01:49:33;;;;;;;25.10;20.00;;;;;;;5.33;90.48;99636.51;219040;1261;140283;-67
2023/10/24 01:54:37;;;;;;;33.10;21.80;;;;;;;5.27;90.76;99629.14;217775;1260;141926;-66
2023/10/24 01:59:41;;;;;;;24.90;17.00;;;;;;;5.25;90.85;99625.20;219842;1259;140183;-67
2023/10/24 02:04:45;;;;;;;24.60;18.00;;;;;;;5.18;90.62;99607.73;218764;1260;141237;-69
2023/10/24 02:09:50;;;;;;;22.20;17.80;;;;;;;5.10;90.52;99604.07;218696;1257;139978;-66
2023/10/24 02:14:55;;;;;;;21.30;17.40;;;;;;;5.06;90.85;99598.37;218486;1257;140338;-66
2023/10/24 02:19:58;;;;;;;27.50;17.50;;;;;;;5.00;90.64;99589.02;217993;1257;470495;-67
2023/10/24 02:25:02;;;;;;;29.40;21.30;;;;;;;4.98;91.00;99580.23;218117;1257;140962;-69
2023/10/24 02:30:07;;;;;;;48.20;21.40;;;;;;;4.97;91.25;99570.48;218365;1257;140949;-69
2023/10/24 02:35:12;;;;;;;30.70;20.30;;;;;;;4.95;91.38;99569.13;217309;1257;140874;-68
2023/10/24 02:40:16;;;;;;;31.90;20.00;;;;;;;4.94;91.51;99568.80;218421;1262;139995;-68
2023/10/24 02:45:19;;;;;;;26.90;19.40;;;;;;;4.93;91.78;99567.17;217822;1257;140126;-67
2023/10/24 02:50:22;;;;;;;25.70;21.70;;;;;;;4.94;92.20;99565.05;217953;1262;140936;-67
2023/10/24 02:55:26;;;;;;;29.20;21.70;;;;;;;4.98;92.41;99564.19;218442;1257;140827;-68
2023/10/24 03:00:29;;;;;;;24.50;18.70;;;;;;;5.02;92.33;99567.52;219074;1257;142713;-68
2023/10/24 03:05:34;;;;;;;24.80;18.20;;;;;;;5.04;92.08;99577.20;217985;1257;142167;-67
2023/10/24 03:10:39;;;;;;;29.20;21.50;;;;;;;5.06;92.45;99576.88;218488;1258;140028;-67
2023/10/24 03:15:44;;;;;;;27.00;22.80;;;;;;;5.13;93.03;99575.66;217810;1257;141577;-68
2023/10/24 03:20:48;;;;;;;22.30;18.20;;;;;;;5.24;93.20;99568.89;217496;1258;140160;-68
2023/10/24 03:25:52;;;;;;;29.80;20.30;;;;;;;5.30;93.36;99574.75;219340;1257;140572;-70
2023/10/24 03:31:04;;;;;;;28.70;22.40;;;;;;;5.39;93.53;99571.16;219600;1257;140308;-66
2023/10/24 03:36:15;;;;;;;33.50;21.20;;;;;;;5.52;93.91;99565.69;219725;1257;140634;-67
2023/10/24 03:41:18;;;;;;;28.30;20.40;;;;;;;5.65;94.55;99564.36;220064;1257;140937;-68
2023/10/24 03:46:22;;;;;;;23.40;21.00;;;;;;;5.75;94.16;99562.11;220302;1257;140394;-67
2023/10/24 03:51:27;;;;;;;31.80;22.60;;;;;;;5.83;94.14;99548.65;219270;1257;141285;-68
2023/10/24 03:56:33;;;;;;;28.20;20.10;;;;;;;5.87;93.80;99542.33;218543;1258;140752;-68
2023/10/24 04:01:38;;;;;;;23.10;18.80;;;;;;;5.84;93.45;99546.27;218545;1257;142551;-68
2023/10/24 04:06:44;;;;;;;27.70;20.60;;;;;;;5.81;93.29;99541.63;217821;1261;151322;-68
2023/10/24 04:11:48;;;;;;;27.60;20.70;;;;;;;5.80;93.23;99545.84;217789;1257;140572;-64
2023/10/24 04:16:52;;;;;;;36.50;23.00;;;;;;;5.80;93.57;99551.73;217444;1257;140931;-65
2023/10/24 04:21:57;;;;;;;30.80;22.40;;;;;;;5.83;94.17;99550.64;217171;1257;140945;-65
2023/10/24 04:27:01;;;;;;;22.50;19.40;;;;;;;5.86;94.40;99556.48;218297;1259;140517;-64
2023/10/24 04:32:05;;;;;;;25.90;17.90;;;;;;;5.85;94.35;99551.41;217264;1262;140738;-65
2023/10/24 04:37:10;;;;;;;23.90;19.50;;;;;;;5.83;94.16;99565.77;218494;1257;140546;-65
2023/10/24 04:42:15;;;;;;;29.00;23.40;;;;;;;5.86;94.49;99561.86;218095;1258;140091;-67
2023/10/24 04:47:20;;;;;;;31.90;20.00;;;;;;;5.93;94.93;99556.46;217836;1257;141180;-67
2023/10/24 04:52:24;;;;;;;30.60;20.60;;;;;;;5.97;94.53;99556.38;217800;1257;140250;-67
2023/10/24 04:57:29;;;;;;;23.00;17.30;;;;;;;5.97;95.08;99542.90;218775;1257;140870;-68
2023/10/24 05:02:34;;;;;;;30.10;21.90;;;;;;;6.00;94.74;99534.27;217468;1257;141387;-66
2023/10/24 05:07:38;;;;;;;28.70;21.90;;;;;;;6.05;95.16;99533.84;219424;1257;139970;-68
2023/10/24 05:12:43;;;;;;;31.30;19.80;;;;;;;6.11;95.29;99532.88;219553;1257;140735;-69
2023/10/24 05:17:48;;;;;;;34.10;24.10;;;;;;;6.17;95.36;99530.27;218425;1258;140997;-67
2023/10/24 05:22:52;;;;;;;40.30;22.60;;;;;;;6.27;95.67;99531.89;217700;1257;140654;-66
2023/10/24 05:27:58;;;;;;;36.50;23.40;;;;;;;6.37;95.93;99528.83;218745;1257;154120;-66
2023/10/24 05:33:03;;;;;;;38.60;23.40;;;;;;;6.46;96.21;99531.16;218642;1257;141035;-66
2023/10/24 05:38:07;;;;;;;41.80;24.60;;;;;;;6.52;95.97;99524.73;220057;1258;141714;-66
2023/10/24 05:43:11;;;;;;;30.70;21.30;;;;;;;6.60;96.00;99518.86;220033;1257;140679;-67
2023/10/24 05:48:14;;;;;;;31.40;22.40;;;;;;;6.69;95.98;99517.60;220091;1257;142198;-66
2023/10/24 05:53:18;;;;;;;33.00;21.90;;;;;;;6.79;95.94;99525.77;219928;1257;141456;-67
2023/10/24 05:58:23;;;;;;;28.70;17.90;;;;;;;6.90;96.41;99535.89;220338;1257;140944;-67
2023/10/24 06:03:26;;;;;;;27.50;18.40;;;;;;;6.99;96.47;99538.36;218338;1257;140477;-66
2023/10/24 06:08:30;;;;;;;29.00;18.60;;;;;;;7.06;96.55;99543.70;218955;1257;140253;-67
2023/10/24 06:13:34;;;;;;;29.30;17.50;;;;;;;7.14;96.90;99556.32;218294;1257;139968;-69
2023/10/24 06:18:39;;;;;;;29.60;18.30;;;;;;;7.24;96.95;99557.85;218363;1257;153613;-65
2023/10/24 06:23:43;;;;;;;24.30;19.20;;;;;;;7.33;97.29;99542.22;218016;1257;140525;-67
2023/10/24 06:28:46;;;;;;;56.60;31.30;;;;;;;7.52;98.19;99546.73;218368;1259;140512;-69
2023/10/24 06:33:50;;;;;;;75.50;36.20;;;;;;;7.78;98.54;99539.80;217970;1261;140529;-68
2023/10/24 06:38:55;;;;;;;42.20;24.00;;;;;;;8.05;98.88;99527.48;217902;1259;140276;-68
2023/10/24 06:43:59;;;;;;;39.30;23.20;;;;;;;8.35;99.78;99527.51;218625;1257;140464;-67
2023/10/24 06:49:04;;;;;;;27.80;19.10;;;;;;;8.58;99.56;99518.98;217419;1257;140728;-70
2023/10/24 06:54:08;;;;;;;22.30;16.00;;;;;;;8.75;99.58;99500.29;218162;1258;141107;-68
2023/10/24 06:59:15;;;;;;;22.60;18.00;;;;;;;8.86;99.51;99496.72;218158;1259;141027;-68
2023/10/24 07:04:19;;;;;;;26.20;17.70;;;;;;;8.94;99.33;99505.95;218742;1259;141033;-68
2023/10/24 07:09:23;;;;;;;25.80;17.30;;;;;;;9.02;99.32;99497.20;218686;1259;140408;-68
2023/10/24 07:14:27;;;;;;;23.40;15.80;;;;;;;9.11;99.45;99466.48;217450;1260;140766;-69
2023/10/24 07:19:31;;;;;;;29.10;18.40;;;;;;;9.25;99.62;99451.91;218980;1258;140927;-68
2023/10/24 07:24:35;;;;;;;25.90;21.00;;;;;;;9.41;99.83;99452.39;219625;1259;141939;-68
2023/10/24 07:29:39;;;;;;;26.10;18.20;;;;;;;9.58;99.92;99448.27;217806;1257;140337;-69
2023/10/24 07:34:43;;;;;;;28.00;18.80;;;;;;;9.72;99.77;99455.49;220177;1258;140784;-68
2023/10/24 07:39:46;;;;;;;28.60;19.00;;;;;;;9.89;99.83;99464.58;220172;1258;140499;-69
2023/10/24 07:44:51;;;;;;;32.80;19.30;;;;;;;10.09;99.85;99458.90;219610;1258;140451;-67
2023/10/24 07:49:55;;;;;;;23.90;18.30;;;;;;;10.30;99.91;99457.45;218657;1258;141260;-67
2023/10/24 07:54:59;;;;;;;30.20;19.60;;;;;;;10.44;99.43;99478.05;219083;1259;141179;-67
2023/10/24 08:00:04;;;;;;;27.00;17.50;;;;;;;10.62;99.37;99480.23;218476;1259;140359;-67
2023/10/24 08:05:08;;;;;;;27.40;19.10;;;;;;;10.82;99.37;99480.71;218777;1258;141293;-67
2023/10/24 08:10:12;;;;;;;26.10;18.70;;;;;;;11.10;99.52;99472.35;218884;1259;140799;-66
2023/10/24 08:15:15;;;;;;;22.30;17.30;;;;;;;11.35;99.43;99468.75;217896;1259;140379;-66
2023/10/24 08:20:20;;;;;;;32.70;19.50;;;;;;;11.54;99.01;99464.64;218122;1259;140875;-66
2023/10/24 08:25:24;;;;;;;22.50;15.40;;;;;;;11.67;98.81;99456.51;217814;1258;140713;-69
2023/10/24 08:30:31;;;;;;;25.90;15.10;;;;;;;11.80;98.63;99448.30;218456;1257;141127;-67
2023/10/24 08:35:35;;;;;;;14.80;11.00;;;;;;;12.01;98.27;99448.81;218835;1258;140701;-67
2023/10/24 08:40:41;;;;;;;16.50;10.30;;;;;;;12.18;97.69;99441.73;218345;1258;142323;-68
2023/10/24 08:45:45;;;;;;;20.80;8.50;;;;;;;12.33;97.37;99434.82;217961;1259;142318;-69
2023/10/24 08:50:50;;;;;;;15.10;7.60;;;;;;;12.58;97.13;99421.19;218105;1258;141592;-69
2023/10/24 08:55:57;;;;;;;12.30;7.50;;;;;;;12.82;96.57;99417.79;217249;1259;141033;-70
2023/10/24 09:01:02;;;;;;;13.40;7.60;;;;;;;13.05;96.14;99401.69;218657;1258;140652;-69
2023/10/24 09:06:07;;;;;;;18.90;9.70;;;;;;;13.31;95.44;99392.58;218711;1258;140288;-68
2023/10/24 09:11:10;;;;;;;16.40;9.30;;;;;;;13.53;94.99;99383.19;219035;1258;139925;-68
2023/10/24 09:16:15;;;;;;;13.20;7.50;;;;;;;13.64;94.20;99377.13;218338;1261;140136;-69
2023/10/24 09:21:19;;;;;;;17.50;7.20;;;;;;;13.78;93.51;99364.04;218140;1257;140207;-69
2023/10/24 09:26:22;;;;;;;7.80;6.00;;;;;;;14.04;93.50;99347.63;218300;1257;141722;-71
2023/10/24 09:31:26;;;;;;;6.20;5.00;;;;;;;14.38;93.06;99336.70;219102;1257;141394;-68
2023/10/24 09:36:29;;;;;;;5.40;4.10;;;;;;;14.69;92.33;99325.48;218599;1258;140954;-72
2023/10/24 09:41:33;;;;;;;6.50;4.10;;;;;;;14.95;91.38;99319.83;218899;1259;140301;-70
2023/10/24 09:46:38;;;;;;;5.40;3.30;;;;;;;15.23;90.56;99309.47;218561;1260;140447;-67
2023/10/24 09:51:44;;;;;;;6.00;3.50;;;;;;;15.45;89.24;99306.73;218032;1258;140844;-68
2023/10/24 09:56:53;;;;;;;8.70;3.20;;;;;;;15.65;88.49;99308.73;218463;1258;140504;-69
2023/10/24 10:01:59;;;;;;;3.90;2.40;;;;;;;15.80;87.23;99308.55;218466;1259;140606;-68
2023/10/24 10:07:12;;;;;;;7.80;3.10;;;;;;;16.06;86.57;99302.54;218485;1259;140423;-67
2023/10/24 10:12:18;;;;;;;4.60;2.70;;;;;;;16.21;85.02;99306.02;217690;1259;139956;-67
2023/10/24 10:17:28;;;;;;;3.60;2.10;;;;;;;16.30;84.15;99303.36;217820;1259;140266;-67
2023/10/24 10:22:59;;;;;;;3.50;3.20;;;;;;;16.39;83.34;99299.67;217434;1262;140492;-67
2023/10/24 10:28:13;;;;;;;2.80;2.60;;;;;;;16.54;82.76;99290.45;217907;1259;140652;-70
2023/10/24 10:33:21;;;;;;;5.80;3.20;;;;;;;16.76;82.31;99294.23;217384;1262;140370;-68
2023/10/24 10:38:45;;;;;;;3.20;1.90;;;;;;;16.98;82.08;99290.05;217714;1259;140824;-68
2023/10/24 10:43:53;;;;;;;3.10;2.40;;;;;;;17.06;81.06;99285.86;217619;1258;140181;-68
2023/10/24 10:49:06;;;;;;;6.90;3.00;;;;;;;17.20;80.89;99286.38;217784;1259;140960;-69
2023/10/24 10:54:25;;;;;;;5.40;2.50;;;;;;;17.08;79.27;99275.39;218274;1259;141503;-69
2023/10/24 10:59:43;;;;;;;6.30;2.30;;;;;;;16.81;78.26;99268.49;218072;1259;140875;-68
2023/10/24 11:04:46;;;;;;;6.00;2.60;;;;;;;16.47;77.63;99268.23;218647;1259;140764;-68
2023/10/24 11:09:52;;;;;;;3.00;2.40;;;;;;;16.34;77.73;99257.49;218645;1262;140257;-68
2023/10/24 11:15:13;;;;;;;4.00;2.80;;;;;;;16.63;78.31;99231.21;218464;1259;140349;-68
2023/10/24 11:20:17;;;;;;;6.60;3.20;;;;;;;16.91;78.14;99216.02;217975;1260;139917;-68
2023/10/24 11:25:27;;;;;;;8.10;3.30;;;;;;;17.07;77.35;99205.21;218956;1259;140240;-70
2023/10/24 11:30:30;;;;;;;6.50;3.80;;;;;;;17.16;76.79;99196.45;218865;1258;140988;-69
2023/10/24 11:35:34;;;;;;;6.60;2.60;;;;;;;17.16;75.71;99182.06;219705;1259;140914;-71
2023/10/24 11:40:39;;;;;;;5.40;3.20;;;;;;;17.23;75.52;99170.83;218727;1258;140043;-72
2023/10/24 11:45:44;;;;;;;7.20;2.70;;;;;;;17.35;75.02;99157.68;219336;1258;140218;-68
2023/10/24 11:50:48;;;;;;;6.20;3.60;;;;;;;17.44;74.56;99161.25;217568;1259;141116;-68
2023/10/24 11:55:52;;;;;;;5.10;3.80;;;;;;;17.39;73.95;99180.78;219429;1259;141404;-69
2023/10/24 12:00:58;;;;;;;7.20;2.90;;;;;;;17.21;73.82;99181.52;218190;1259;140167;-68
2023/10/24 12:06:06;;;;;;;6.50;2.60;;;;;;;17.17;74.03;99181.31;217976;1260;140080;-69
2023/10/24 12:11:10;;;;;;;9.40;2.90;;;;;;;17.14;74.03;99175.21;218318;1259;140567;-67
2023/10/24 12:16:14;;;;;;;8.50;3.30;;;;;;;17.01;73.45;99164.33;217602;1259;140627;-67
2023/10/24 12:21:18;;;;;;;3.50;3.10;;;;;;;16.92;73.68;99154.59;218702;1258;139998;-69
2023/10/24 12:26:22;;;;;;;6.60;3.80;;;;;;;16.96;74.19;99158.95;218049;1261;140725;-67
2023/10/24 12:31:26;;;;;;;6.10;3.30;;;;;;;16.99;74.51;99158.37;217893;1261;140092;-68
2023/10/24 12:36:30;;;;;;;4.20;3.60;;;;;;;16.95;74.66;99162.73;217392;1258;141497;-68
2023/10/24 12:41:34;;;;;;;8.90;4.30;;;;;;;16.93;74.55;99154.08;217459;1260;140017;-67
2023/10/24 12:46:38;;;;;;;4.90;3.70;;;;;;;16.92;74.58;99139.34;218206;1260;140449;-69
2023/10/24 12:51:43;;;;;;;13.00;3.70;;;;;;;16.94;74.75;99136.61;218720;1259;140614;-68
2023/10/24 12:56:46;;;;;;;7.20;3.90;;;;;;;16.97;74.65;99130.61;218734;1258;140513;-68
2023/10/24 13:01:53;;;;;;;11.80;4.50;;;;;;;16.93;74.23;99117.25;217748;1260;139895;-70
2023/10/24 13:06:59;;;;;;;4.30;3.80;;;;;;;16.90;74.38;99109.17;218648;1259;140302;-71
2023/10/24 13:12:07;;;;;;;4.60;4.10;;;;;;;16.86;74.30;99106.16;218817;1260;139683;-69
2023/10/24 13:17:13;;;;;;;6.60;5.10;;;;;;;16.78;74.48;99103.15;218861;1258;140540;-70
2023/10/24 13:22:18;;;;;;;7.70;4.40;;;;;;;16.75;74.48;99101.48;218740;1259;141388;-70
2023/10/24 13:27:23;;;;;;;8.60;4.20;;;;;;;16.73;74.62;99103.71;219527;1260;140249;-69
2023/10/24 13:32:29;;;;;;;8.10;5.60;;;;;;;16.68;74.38;99100.33;218206;1257;141583;-69
2023/10/24 13:37:34;;;;;;;8.00;5.00;;;;;;;16.61;74.34;99090.77;217859;1260;140495;-70
2023/10/24 13:42:39;;;;;;;15.10;5.30;;;;;;;16.53;74.48;99070.95;218737;1260;141310;-69
2023/10/24 13:47:43;;;;;;;5.50;5.00;;;;;;;16.44;74.73;99059.83;218470;1257;140154;-71
2023/10/24 13:52:48;;;;;;;4.90;4.10;;;;;;;16.34;74.70;99048.98;218326;1259;220640;-68
2023/10/24 13:57:53;;;;;;;8.20;5.20;;;;;;;16.23;74.69;99034.34;218024;1259;154155;-71
2023/10/24 14:02:58;;;;;;;8.50;4.80;;;;;;;16.09;75.05;99025.80;217808;1261;139871;-69
2023/10/24 14:08:03;;;;;;;8.90;5.30;;;;;;;15.95;75.43;99015.70;218108;1260;140592;-68
2023/10/24 14:13:07;;;;;;;8.20;5.60;;;;;;;15.82;75.65;99003.88;217860;1260;140230;-68
2023/10/24 14:18:13;;;;;;;7.90;6.20;;;;;;;15.66;75.85;98995.50;217729;1260;551299;-67
2023/10/24 14:23:17;;;;;;;10.10;7.90;;;;;;;15.53;76.11;98991.40;217458;1261;141563;-67
2023/10/24 14:28:22;;;;;;;11.50;8.00;;;;;;;15.39;76.35;98985.28;218839;1258;140395;-68
2023/10/24 14:33:26;;;;;;;12.60;7.80;;;;;;;15.24;76.72;98987.38;218241;1259;140533;-66
2023/10/24 14:38:31;;;;;;;17.60;7.40;;;;;;;15.12;77.12;98991.67;218031;1257;140911;-68
2023/10/24 14:43:35;;;;;;;10.50;8.60;;;;;;;14.98;77.33;98995.88;218578;1258;140518;-67
2023/10/24 14:48:40;;;;;;;11.90;9.10;;;;;;;14.86;77.68;98996.73;218588;1257;140225;-66
2023/10/24 14:53:44;;;;;;;11.00;7.90;;;;;;;14.75;77.94;98996.54;217780;1258;139980;-70
2023/10/24 14:58:49;;;;;;;10.00;9.00;;;;;;;14.62;78.30;98993.47;218222;1258;141166;-70
2023/10/24 15:03:54;;;;;;;12.50;8.30;;;;;;;14.50;78.73;98990.98;218656;1260;141203;-69
2023/10/24 15:08:59;;;;;;;14.50;10.40;;;;;;;14.39;78.97;98994.73;218954;1260;209033;-68
2023/10/24 15:14:04;;;;;;;16.60;10.10;;;;;;;14.28;79.17;98993.71;218793;1259;141298;-68
2023/10/24 15:19:08;;;;;;;10.40;8.50;;;;;;;14.20;79.48;98987.64;219104;1258;140754;-69
2023/10/24 15:24:12;;;;;;;15.30;10.10;;;;;;;14.11;79.76;98981.29;217691;1260;140241;-69
2023/10/24 15:29:16;;;;;;;18.80;12.80;;;;;;;14.01;79.92;98975.20;218285;1257;140497;-71
2023/10/24 15:34:19;;;;;;;24.70;14.40;;;;;;;13.90;80.19;98954.66;219330;1259;141198;-71
2023/10/24 15:39:23;;;;;;;19.00;11.60;;;;;;;13.80;80.54;98945.05;218687;1262;140972;-71
2023/10/24 15:44:27;;;;;;;17.80;14.00;;;;;;;13.72;80.91;98932.58;217883;1258;140416;-69
2023/10/24 15:49:32;;;;;;;12.20;10.00;;;;;;;13.66;81.26;98920.02;218622;1258;140713;-69
2023/10/24 15:54:37;;;;;;;11.80;9.20;;;;;;;13.60;81.46;98909.21;218422;1260;140581;-69
2023/10/24 15:59:42;;;;;;;13.10;9.60;;;;;;;13.53;81.68;98901.95;217983;1259;140272;-71
2023/10/24 16:04:46;;;;;;;15.30;9.30;;;;;;;13.44;81.81;98897.87;217944;1262;140526;-69
2023/10/24 16:09:52;;;;;;;12.00;9.40;;;;;;;13.37;81.93;98890.03;217905;1259;140672;-68
2023/10/24 16:14:56;;;;;;;11.40;9.30;;;;;;;13.30;82.26;98888.55;219116;1259;140925;-73
2023/10/24 16:20:02;;;;;;;15.40;11.90;;;;;;;13.23;82.57;98883.38;219643;1259;141804;-69
2023/10/24 16:25:07;;;;;;;10.60;8.60;;;;;;;13.21;82.70;98873.27;217877;1262;140254;-69
2023/10/24 16:30:14;;;;;;;10.90;9.30;;;;;;;13.19;82.72;98875.03;218322;1260;140641;-69
2023/10/24 16:35:18;;;;;;;14.40;10.10;;;;;;;13.17;82.93;98871.34;217538;1259;140950;-71
2023/10/24 16:40:22;;;;;;;13.10;11.60;;;;;;;13.12;83.10;98867.29;218229;1260;140736;-68
2023/10/24 16:45:27;;;;;;;9.90;8.80;;;;;;;13.06;83.43;98868.31;217922;1259;250648;-68
2023/10/24 16:50:36;;;;;;;10.10;8.80;;;;;;;13.00;83.53;98864.15;217587;1262;140196;-73
2023/10/24 16:55:40;;;;;;;15.50;10.10;;;;;;;12.97;83.77;98868.42;218016;1260;140417;-69
2023/10/24 17:00:47;;;;;;;13.80;12.50;;;;;;;12.94;83.80;98863.35;217576;1262;140288;-71
2023/10/24 17:05:52;;;;;;;16.80;12.30;;;;;;;12.95;84.22;98841.53;218341;1260;140367;-74
2023/10/24 17:10:58;;;;;;;14.40;11.50;;;;;;;12.94;84.41;98824.36;218263;1259;140504;-73
2023/10/24 17:16:03;;;;;;;14.60;11.50;;;;;;;12.94;84.53;98831.80;219025;1260;140606;-73
2023/10/24 17:21:08;;;;;;;17.40;10.00;;;;;;;12.92;84.52;98815.37;218703;1259;140651;-68
2023/10/24 17:26:15;;;;;;;14.50;11.10;;;;;;;12.90;84.77;98807.73;219186;1257;140228;-71
2023/10/24 17:31:20;;;;;;;13.60;10.30;;;;;;;12.89;84.88;98814.69;218326;1262;141398;-69
2023/10/24 17:36:24;;;;;;;16.40;11.60;;;;;;;12.87;84.95;98814.10;218228;1260;140673;-73
2023/10/24 17:41:28;;;;;;;21.80;14.00;;;;;;;12.85;85.00;98807.00;219256;1257;142762;-72
2023/10/24 17:46:33;;;;;;;16.30;13.40;;;;;;;12.83;85.32;98792.30;217989;1262;141141;-72
2023/10/24 17:51:38;;;;;;;11.90;8.60;;;;;;;12.81;85.44;98790.82;217842;1259;142242;-69
2023/10/24 17:56:44;;;;;;;16.80;12.40;;;;;;;12.75;85.53;98780.77;218995;1262;141092;-69
2023/10/24 18:01:51;;;;;;;14.80;11.30;;;;;;;12.74;85.87;98767.83;218079;1257;140721;-74
2023/10/24 18:06:56;;;;;;;19.60;15.40;;;;;;;12.72;85.89;98758.80;218063;1261;141628;-72
2023/10/24 18:12:14;;;;;;;16.80;12.90;;;;;;;12.70;86.01;98742.60;218216;1262;140415;-72
2023/10/24 18:17:18;;;;;;;18.70;14.20;;;;;;;12.70;86.48;98735.33;218008;1258;140542;-72
2023/10/24 18:22:22;;;;;;;15.60;13.20;;;;;;;12.67;86.29;98739.66;218731;1261;141009;-73
2023/10/24 18:27:26;;;;;;;20.10;14.70;;;;;;;12.64;86.28;98744.70;218093;1262;140679;-74
2023/10/24 18:32:31;;;;;;;20.50;14.50;;;;;;;12.64;86.50;98750.36;218224;1259;140596;-75
2023/10/24 18:37:34;;;;;;;18.30;13.80;;;;;;;12.62;86.67;98751.44;218212;1262;140923;-75
2023/10/24 18:42:39;;;;;;;16.50;14.60;;;;;;;12.61;86.57;98749.89;218249;1258;140234;-70
2023/10/24 18:47:43;;;;;;;12.80;10.90;;;;;;;12.63;86.99;98743.63;217621;1257;140351;-71
2023/10/24 18:52:47;;;;;;;21.00;15.30;;;;;;;12.62;86.92;98732.61;218866;1257;141030;-71
2023/10/24 18:57:52;;;;;;;19.00;14.50;;;;;;;12.60;87.13;98725.89;217739;1260;140855;-69
2023/10/24 19:02:58;;;;;;;18.60;12.30;;;;;;;12.59;87.14;98720.05;218507;1257;140448;-73
2023/10/24 19:08:02;;;;;;;18.10;14.20;;;;;;;12.56;87.04;98722.58;219044;1260;140468;-73
2023/10/24 19:13:07;;;;;;;24.50;14.10;;;;;;;12.57;87.19;98712.52;219485;1263;142132;-73
2023/10/24 19:18:14;;;;;;;21.50;14.10;;;;;;;12.57;87.25;98705.41;219097;1257;140632;-71
2023/10/24 19:23:19;;;;;;;18.50;14.10;;;;;;;12.59;87.25;98690.17;217655;1262;140609;-68
2023/10/24 19:28:24;;;;;;;24.20;15.10;;;;;;;12.58;87.39;98681.03;218301;1261;140317;-72
2023/10/24 19:33:29;;;;;;;18.90;13.10;;;;;;;12.56;87.37;98673.07;218130;1261;141209;-74
2023/10/24 19:38:38;;;;;;;20.40;13.90;;;;;;;12.55;87.51;98675.37;217768;1260;140456;-72
2023/10/24 19:43:43;;;;;;;17.80;13.50;;;;;;;12.55;87.59;98667.46;217754;1263;142341;-73
2023/10/24 19:48:46;;;;;;;17.40;13.90;;;;;;;12.54;87.54;98656.94;218904;1260;140930;-69
2023/10/24 19:53:50;;;;;;;21.00;13.90;;;;;;;12.52;87.83;98653.59;217829;1259;140238;-75
2023/10/24 19:58:55;;;;;;;16.70;12.80;;;;;;;12.50;87.56;98645.52;218252;1262;142103;-70
2023/10/24 20:04:00;;;;;;;21.90;14.50;;;;;;;12.51;87.86;98635.90;217599;1260;140859;-73
2023/10/24 20:09:06;;;;;;;21.80;14.60;;;;;;;12.50;87.86;98621.79;217652;1260;141409;-72
2023/10/24 20:14:12;;;;;;;19.90;15.90;;;;;;;12.47;87.76;98615.70;218628;1261;145476;-72
2023/10/24 20:19:16;;;;;;;23.50;15.60;;;;;;;12.43;87.99;98605.56;217433;1260;140451;-71
2023/10/24 20:24:20;;;;;;;23.40;16.00;;;;;;;12.39;87.94;98596.13;217524;1263;140517;-73
2023/10/24 20:29:25;;;;;;;17.50;14.40;;;;;;;12.35;88.00;98578.88;218045;1259;141096;-73
2023/10/24 20:34:31;;;;;;;21.00;16.30;;;;;;;12.32;88.08;98562.16;217710;1260;140685;-71
2023/10/24 20:39:36;;;;;;;21.00;14.20;;;;;;;12.30;88.42;98557.52;217672;1263;140574;-71
2023/10/24 20:44:41;;;;;;;19.40;14.70;;;;;;;12.27;88.34;98548.91;217773;1260;142663;-73
2023/10/24 20:49:46;;;;;;;15.70;12.20;;;;;;;12.23;88.26;98534.56;218759;1260;141689;-74
2023/10/24 20:54:53;;;;;;;22.20;15.00;;;;;;;12.20;88.28;98546.62;218211;1259;141125;-71
2023/10/24 20:59:58;;;;;;;14.30;12.80;;;;;;;12.19;88.49;98536.25;217526;1260;140735;-73
2023/10/24 21:05:04;;;;;;;18.20;13.20;;;;;;;12.18;88.70;98531.34;218390;1259;140760;-74
2023/10/24 21:10:09;;;;;;;19.40;13.00;;;;;;;12.15;88.65;98536.91;218811;1259;140973;-72
2023/10/24 21:15:16;;;;;;;14.40;11.10;;;;;;;12.13;88.75;98538.20;217467;1259;140514;-71
2023/10/24 21:20:22;;;;;;;17.60;14.00;;;;;;;12.09;88.71;98528.81;217718;1259;140641;-71
2023/10/24 21:25:26;;;;;;;13.20;10.90;;;;;;;12.08;88.97;98518.67;217520;1260;140221;-69
2023/10/24 21:30:30;;;;;;;20.40;13.70;;;;;;;12.07;89.27;98497.25;217719;1262;140487;-72
2023/10/24 21:35:44;;;;;;;19.40;13.50;;;;;;;12.07;89.44;98478.12;218452;1259;140457;-71
2023/10/24 21:40:55;;;;;;;13.80;12.40;;;;;;;12.05;89.20;98460.45;217828;1259;140444;-70
2023/10/24 21:46:06;;;;;;;23.70;15.10;;;;;;;12.02;89.11;98465.59;217406;1260;142597;-72
2023/10/24 21:51:10;;;;;;;28.60;14.40;;;;;;;12.00;89.52;98465.38;217385;1260;141077;-71
2023/10/24 21:56:18;;;;;;;21.30;13.90;;;;;;;11.94;89.44;98455.10;217517;1262;140293;-73
2023/10/24 22:01:23;;;;;;;16.30;12.50;;;;;;;11.92;89.60;98449.95;217827;1262;140126;-71
2023/10/24 22:06:28;;;;;;;21.40;14.00;;;;;;;11.86;89.47;98451.05;217502;1257;141523;-72
2023/10/24 22:11:34;;;;;;;23.00;15.40;;;;;;;11.80;89.89;98442.04;218519;1257;142385;-68
2023/10/24 22:16:39;;;;;;;20.00;14.10;;;;;;;11.78;90.08;98444.92;218226;1259;224971;-71
2023/10/24 22:21:43;;;;;;;18.30;14.10;;;;;;;11.78;90.07;98433.77;217340;1261;142149;-73
2023/10/24 22:26:48;;;;;;;23.40;14.70;;;;;;;11.76;90.29;98423.89;218231;1257;140909;-72
2023/10/24 22:31:52;;;;;;;17.50;14.00;;;;;;;11.73;90.38;98408.08;218101;1257;140690;-72
2023/10/24 22:37:02;;;;;;;17.10;13.60;;;;;;;11.71;90.26;98401.14;217474;1261;141356;-73
2023/10/24 22:42:06;;;;;;;18.60;12.90;;;;;;;11.68;90.56;98411.73;217781;1257;140666;-73
2023/10/24 22:47:11;;;;;;;19.50;14.70;;;;;;;11.61;90.55;98410.54;217393;1259;140747;-72
2023/10/24 22:52:16;;;;;;;20.60;15.20;;;;;;;11.58;90.93;98400.84;218087;1259;140564;-72
2023/10/24 22:57:21;;;;;;;22.30;17.00;;;;;;;11.57;91.20;98387.83;217395;1257;141042;-71
2023/10/24 23:02:24;;;;;;;23.50;16.30;;;;;;;11.58;91.37;98381.47;219162;1257;142129;-71